Algoa, Arkansas
Current Conditions -  °F | °C
As of 11:56 AM on Thursday 30 Oct 2014 (Local Time) from KM19 Reporting Station
Clear Clear  
Wind Chill: 64°   Ceiling: Unl
Heat Index: 64°   Visibility: 10mi
Dew Point: 40°   Wind: 5mph
Humidity: 41%   Direction: 140°SE
Pressure: 30.16"   Gusts: NA
Location:  35.5678°N, 91.2073°W
Report Text: KM19 301656Z AUTO 14004KT 10SM CLR 18/04 A3016 RMK AO2 T01770044 SLP211
Loading
Personal Weather Stations






























Interactive Weather Map
Tropical Storm Tracking
New forecast layout! Learn more

10-Day Weather Forecast

Advertisements
Track Severe Weather on mobile